createdAt,value
2019-04-21T00:02:24.243Z,14.80
2019-04-21T00:05:06.085Z,14.90
2019-04-21T00:07:36.492Z,14.90
2019-04-21T00:10:12.339Z,14.90
2019-04-21T00:12:40.529Z,14.80
2019-04-21T00:15:02.121Z,14.80
2019-04-21T00:17:27.052Z,14.80
2019-04-21T00:20:09.081Z,14.80
2019-04-21T00:22:41.294Z,14.80
2019-04-21T00:25:16.362Z,14.60
2019-04-21T00:27:47.760Z,14.60
2019-04-21T00:30:30.633Z,14.60
2019-04-21T00:32:50.311Z,14.50
2019-04-21T00:35:13.254Z,14.50
2019-04-21T00:38:06.900Z,14.50
2019-04-21T00:40:36.554Z,14.50
2019-04-21T00:42:59.945Z,14.50
2019-04-21T00:45:28.625Z,14.30
2019-04-21T00:48:05.652Z,14.30
2019-04-21T00:50:51.055Z,14.20
2019-04-21T00:53:10.482Z,14.20
2019-04-21T00:58:26.816Z,14.10
2019-04-21T01:00:54.144Z,14.00
2019-04-21T01:03:24.755Z,14.00
2019-04-21T01:05:57.561Z,14.00
2019-04-21T01:08:19.868Z,14.10
2019-04-21T01:10:43.968Z,14.00
2019-04-21T01:13:27.775Z,14.00
2019-04-21T01:15:54.168Z,13.90
2019-04-21T01:18:31.430Z,13.90
2019-04-21T01:20:35.700Z,13.90
2019-04-21T01:23:06.357Z,13.80
2019-04-21T01:25:41.173Z,13.70
2019-04-21T01:28:24.624Z,13.70
2019-04-21T01:31:00.387Z,13.60
2019-04-21T01:33:36.215Z,13.50
2019-04-21T01:36:00.838Z,13.40
2019-04-21T01:38:34.265Z,13.30
2019-04-21T01:41:08.630Z,13.30
2019-04-21T01:43:31.548Z,13.30
2019-04-21T01:46:04.509Z,13.30
2019-04-21T01:48:31.885Z,13.20
2019-04-21T01:51:00.607Z,13.20
2019-04-21T01:53:43.126Z,13.10
2019-04-21T01:56:16.943Z,13.00
2019-04-21T01:58:42.851Z,13.00
2019-04-21T02:01:27.423Z,13.00
2019-04-21T02:03:58.291Z,12.90
2019-04-21T02:06:29.039Z,12.80
2019-04-21T02:08:54.981Z,12.70
2019-04-21T02:11:30.025Z,12.70
2019-04-21T02:14:05.417Z,12.60
2019-04-21T02:16:31.054Z,12.60
2019-04-21T02:18:58.121Z,12.50
2019-04-21T02:21:35.078Z,12.50
2019-04-21T02:24:04.971Z,12.50
2019-04-21T02:26:37.630Z,12.50
2019-04-21T02:29:10.122Z,12.40
2019-04-21T02:31:44.648Z,12.30
2019-04-21T02:34:37.461Z,12.40
2019-04-21T02:36:58.890Z,12.40
2019-04-21T02:41:57.930Z,12.20
2019-04-21T02:59:33.388Z,12.00
2019-04-21T03:02:04.632Z,11.90
2019-04-21T03:04:53.124Z,11.90
2019-04-21T03:07:47.869Z,11.90
2019-04-21T03:10:00.069Z,11.80
2019-04-21T03:22:53.135Z,11.70
2019-04-21T03:25:29.551Z,11.60
2019-04-21T03:33:24.616Z,11.50
2019-04-21T03:35:49.127Z,11.60
2019-04-21T03:40:16.660Z,11.50
2019-04-21T03:45:23.816Z,11.50
2019-04-21T03:47:43.388Z,11.40
2019-04-21T03:53:09.557Z,11.40
2019-04-21T04:00:59.993Z,11.20
2019-04-21T04:11:12.055Z,11.10
2019-04-21T04:13:48.839Z,11.00
2019-04-21T04:16:10.705Z,11.10
2019-04-21T04:18:48.711Z,11.10
2019-04-21T04:21:20.841Z,11.10
2019-04-21T04:23:49.242Z,11.10
2019-04-21T04:26:18.432Z,11.10
2019-04-21T04:29:06.301Z,11.30
2019-04-21T04:31:25.474Z,11.30
2019-04-21T04:34:04.791Z,11.20
2019-04-21T04:36:30.156Z,11.10
2019-04-21T04:39:18.019Z,11.10
2019-04-21T04:42:09.606Z,11.00
2019-04-21T04:44:39.318Z,11.10
2019-04-21T04:47:05.872Z,11.00
2019-04-21T04:57:08.042Z,11.20
2019-04-21T05:02:15.047Z,11.20
2019-04-21T05:07:09.698Z,11.20
2019-04-21T05:09:41.251Z,11.20
2019-04-21T05:14:41.013Z,11.30
2019-04-21T05:17:14.258Z,11.30
2019-04-21T05:19:42.171Z,11.20
2019-04-21T05:22:20.270Z,11.30
2019-04-21T05:24:33.250Z,11.30
2019-04-21T05:26:58.427Z,11.30
2019-04-21T05:29:37.501Z,11.30
2019-04-21T05:32:12.868Z,11.40
2019-04-21T05:34:42.623Z,11.50
2019-04-21T05:37:20.091Z,11.60
2019-04-21T05:39:48.019Z,11.70
2019-04-21T05:42:10.998Z,11.80
2019-04-21T05:45:01.786Z,11.90
2019-04-21T05:49:55.479Z,12.00
2019-04-21T05:52:26.444Z,12.00
2019-04-21T05:55:00.910Z,12.10
2019-04-21T05:57:33.578Z,12.20
2019-04-21T06:00:07.588Z,12.30
2019-04-21T06:02:36.886Z,12.40
2019-04-21T06:07:34.864Z,12.60
2019-04-21T06:10:10.522Z,12.70
2019-04-21T06:12:43.139Z,12.90
2019-04-21T06:15:16.662Z,13.00
2019-04-21T06:17:42.822Z,13.20
2019-04-21T06:20:14.061Z,13.40
2019-04-21T06:22:46.525Z,13.60
2019-04-21T06:27:49.044Z,13.90
2019-04-21T06:30:10.669Z,14.00
2019-04-21T06:32:49.227Z,14.20
2019-04-21T06:35:48.519Z,14.30
2019-04-21T06:38:13.224Z,14.40
2019-04-21T06:40:44.453Z,14.50
2019-04-21T06:43:24.555Z,14.60
2019-04-21T06:45:50.674Z,14.80
2019-04-21T06:48:18.547Z,15.00
2019-04-21T06:50:47.534Z,14.90
2019-04-21T06:53:20.745Z,15.00
2019-04-21T06:55:46.686Z,15.10
2019-04-21T06:58:18.400Z,15.30
2019-04-21T07:00:42.454Z,15.40
2019-04-21T07:03:19.578Z,15.40
2019-04-21T07:05:58.996Z,15.60
2019-04-21T07:08:30.932Z,15.60
2019-04-21T07:10:53.257Z,15.60
2019-04-21T07:13:22.240Z,15.60
2019-04-21T07:16:02.646Z,15.60
2019-04-21T07:18:29.815Z,15.70
2019-04-21T07:20:54.952Z,15.80
2019-04-21T07:23:34.830Z,15.90
2019-04-21T07:25:58.142Z,15.90
2019-04-21T07:28:32.162Z,15.90
2019-04-21T07:31:03.713Z,16.20
2019-04-21T07:33:52.317Z,16.20
2019-04-21T07:36:01.446Z,16.10
2019-04-21T07:38:33.188Z,16.10
2019-04-21T07:40:56.778Z,16.20
2019-04-21T07:43:30.022Z,16.40
2019-04-21T07:45:58.813Z,16.60
2019-04-21T07:48:37.548Z,16.60
2019-04-21T07:51:12.069Z,16.70
2019-04-21T07:54:03.310Z,16.80
2019-04-21T07:56:09.487Z,16.90
2019-04-21T07:58:58.258Z,16.90
2019-04-21T08:01:33.739Z,17.00
2019-04-21T08:04:03.990Z,17.10
2019-04-21T08:06:34.948Z,17.30
2019-04-21T08:09:00.976Z,17.20
2019-04-21T08:11:28.343Z,17.30
2019-04-21T08:14:02.087Z,17.50
2019-04-21T08:16:39.746Z,17.60
2019-04-21T08:19:11.488Z,17.60
2019-04-21T08:21:45.904Z,17.70
2019-04-21T08:24:13.553Z,17.90
2019-04-21T08:26:45.192Z,18.00
2019-04-21T08:29:21.464Z,18.10
2019-04-21T08:31:48.607Z,18.30
2019-04-21T08:34:14.095Z,18.40
2019-04-21T08:36:40.716Z,18.60
2019-04-21T08:39:13.496Z,18.70
2019-04-21T08:41:44.040Z,19.00
2019-04-21T08:44:20.576Z,19.10
2019-04-21T08:46:49.120Z,19.20
2019-04-21T08:49:15.625Z,19.30
2019-04-21T08:51:57.072Z,19.50
2019-04-21T08:54:21.993Z,19.60
2019-04-21T08:56:54.255Z,19.70
2019-04-21T09:02:18.133Z,19.90
2019-04-21T09:04:45.827Z,19.90
2019-04-21T09:07:22.728Z,20.10
2019-04-21T09:09:47.692Z,20.10
2019-04-21T09:12:22.634Z,20.30
2019-04-21T09:14:50.662Z,20.50
2019-04-21T09:17:14.949Z,20.60
2019-04-21T09:20:12.659Z,20.70
2019-04-21T09:22:24.401Z,20.80
2019-04-21T09:25:14.567Z,20.90
2019-04-21T09:27:20.367Z,21.10
2019-04-21T09:29:44.651Z,21.30
2019-04-21T09:32:12.358Z,21.40
2019-04-21T09:34:43.558Z,21.60
2019-04-21T09:37:24.013Z,21.80
2019-04-21T09:39:48.064Z,21.90
2019-04-21T09:42:13.834Z,22.00
2019-04-21T09:44:45.735Z,22.00
2019-04-21T09:47:17.600Z,22.20
2019-04-21T09:49:45.545Z,22.30
2019-04-21T09:52:21.059Z,22.50
2019-04-21T09:54:56.598Z,22.60
2019-04-21T09:57:27.679Z,22.80
2019-04-21T09:59:58.138Z,22.80
2019-04-21T10:02:32.875Z,23.00
2019-04-21T10:04:50.974Z,23.20
2019-04-21T10:07:26.541Z,23.20
2019-04-21T10:09:52.403Z,23.40
2019-04-21T10:12:23.526Z,23.50
2019-04-21T10:14:53.341Z,23.80
2019-04-21T10:17:24.327Z,24.10
2019-04-21T10:19:54.820Z,24.30
2019-04-21T10:22:24.404Z,24.40
2019-04-21T10:24:54.741Z,24.50
2019-04-21T10:27:25.259Z,24.70
2019-04-21T10:29:56.001Z,24.90
2019-04-21T10:32:25.537Z,25.00
2019-04-21T10:34:55.174Z,25.10
2019-04-21T10:37:40.085Z,25.30
2019-04-21T10:39:55.827Z,25.10
2019-04-21T10:42:25.225Z,25.30
2019-04-21T10:44:54.804Z,25.50
2019-04-21T10:47:24.805Z,25.80
2019-04-21T10:49:54.925Z,26.00
2019-04-21T10:52:28.940Z,26.10
2019-04-21T10:55:23.357Z,26.20
2019-04-21T10:57:32.656Z,26.50
2019-04-21T11:00:01.915Z,26.60
2019-04-21T11:02:32.959Z,26.70
2019-04-21T11:05:04.819Z,26.80
2019-04-21T11:08:01.159Z,27.00
2019-04-21T11:10:20.324Z,27.10
2019-04-21T11:12:50.772Z,27.00
2019-04-21T11:15:21.197Z,27.00
2019-04-21T11:17:52.358Z,27.10
2019-04-21T11:20:22.821Z,27.50
2019-04-21T11:22:53.566Z,27.40
2019-04-21T11:25:24.303Z,27.60
2019-04-21T11:27:55.224Z,27.50
2019-04-21T11:30:25.608Z,27.50
2019-04-21T11:32:55.304Z,27.50
2019-04-21T11:35:25.500Z,27.60
2019-04-21T11:38:06.086Z,27.90
2019-04-21T11:40:29.664Z,27.90
2019-04-21T11:43:00.317Z,27.50
2019-04-21T11:45:32.837Z,27.80
2019-04-21T11:48:16.642Z,28.10
2019-04-21T11:50:46.706Z,28.20
2019-04-21T11:53:17.198Z,27.70
2019-04-21T11:55:48.851Z,28.10
2019-04-21T11:58:18.155Z,28.20
2019-04-21T12:00:50.913Z,27.70
2019-04-21T12:03:20.519Z,27.80
2019-04-21T12:05:51.335Z,28.20
2019-04-21T12:08:29.942Z,28.10
2019-04-21T12:10:51.635Z,28.30
2019-04-21T12:13:22.309Z,28.50
2019-04-21T12:15:52.815Z,28.50
2019-04-21T12:18:25.015Z,28.80
2019-04-21T12:20:53.751Z,29.00
2019-04-21T12:23:24.379Z,29.10
2019-04-21T12:25:54.815Z,29.10
2019-04-21T12:28:24.105Z,29.00
2019-04-21T12:30:53.815Z,29.10
2019-04-21T12:33:40.499Z,29.30
2019-04-21T12:36:09.831Z,29.50
2019-04-21T12:38:46.891Z,29.40
2019-04-21T12:41:10.710Z,29.30
2019-04-21T12:43:40.138Z,29.00
2019-04-21T12:46:09.697Z,28.50
2019-04-21T12:48:40.004Z,28.70
2019-04-21T12:51:10.144Z,29.00
2019-04-21T12:53:39.652Z,29.30
2019-04-21T12:56:09.490Z,29.40
2019-04-21T12:58:39.531Z,29.30
2019-04-21T13:01:10.016Z,29.10
2019-04-21T13:03:39.705Z,29.30
2019-04-21T13:06:09.956Z,29.30
2019-04-21T13:08:50.972Z,29.50
2019-04-21T13:11:11.546Z,29.60
2019-04-21T13:13:42.002Z,29.20
2019-04-21T13:16:11.644Z,29.20
2019-04-21T13:18:41.717Z,29.40
2019-04-21T13:21:12.083Z,29.00
2019-04-21T13:23:42.927Z,29.30
2019-04-21T13:26:13.041Z,29.40
2019-04-21T13:28:42.670Z,29.50
2019-04-21T13:31:12.130Z,29.40
2019-04-21T13:33:42.011Z,29.30
2019-04-21T13:36:11.844Z,29.40
2019-04-21T13:39:06.293Z,29.50
2019-04-21T13:41:31.411Z,29.50
2019-04-21T13:43:47.505Z,29.50
2019-04-21T13:46:17.671Z,29.30
2019-04-21T13:48:48.167Z,29.70
2019-04-21T13:51:17.724Z,29.80
2019-04-21T13:53:46.997Z,29.50
2019-04-21T13:56:16.378Z,29.70
2019-04-21T13:58:46.325Z,29.90
2019-04-21T14:01:18.027Z,29.70
2019-04-21T14:03:49.371Z,29.80
2019-04-21T14:06:20.299Z,30.10
2019-04-21T14:08:50.596Z,30.00
2019-04-21T14:11:19.949Z,30.10
2019-04-21T14:13:50.456Z,30.30
2019-04-21T14:16:20.279Z,30.30
2019-04-21T14:18:49.662Z,30.30
2019-04-21T14:21:18.978Z,30.50
2019-04-21T14:23:52.136Z,30.40
2019-04-21T14:26:20.312Z,30.40
2019-04-21T14:28:51.247Z,30.00
2019-04-21T14:31:22.104Z,29.80
2019-04-21T14:33:52.093Z,29.80
2019-04-21T14:36:22.902Z,30.00
2019-04-21T14:38:52.423Z,29.80
2019-04-21T14:41:22.197Z,29.60
2019-04-21T14:43:51.487Z,29.60
2019-04-21T14:46:22.394Z,29.40
2019-04-21T14:49:03.428Z,29.70
2019-04-21T14:51:47.452Z,29.50
2019-04-21T14:54:18.456Z,29.60
2019-04-21T14:56:49.347Z,29.60
2019-04-21T14:59:19.295Z,29.80
2019-04-21T15:01:49.545Z,29.50
2019-04-21T15:04:19.351Z,29.70
2019-04-21T15:06:49.946Z,29.90
2019-04-21T15:09:19.205Z,29.60
2019-04-21T15:11:49.831Z,29.30
2019-04-21T15:14:20.119Z,29.30
2019-04-21T15:16:49.467Z,29.10
2019-04-21T15:19:18.731Z,29.20
2019-04-21T15:21:48.155Z,29.00
2019-04-21T15:24:18.333Z,28.90
2019-04-21T15:26:48.655Z,28.90
2019-04-21T15:29:18.771Z,28.60
2019-04-21T15:31:48.417Z,28.50
2019-04-21T15:34:19.152Z,28.40
2019-04-21T15:36:50.220Z,28.30
2019-04-21T15:39:19.649Z,28.50
2019-04-21T15:41:50.483Z,28.70
2019-04-21T15:44:20.838Z,28.50
2019-04-21T15:46:50.341Z,27.50
2019-04-21T15:49:20.812Z,27.50
2019-04-21T15:51:51.554Z,27.80
2019-04-21T15:54:22.495Z,28.10
2019-04-21T15:56:53.569Z,28.00
2019-04-21T15:59:24.576Z,27.90
2019-04-21T16:01:58.764Z,27.90
2019-04-21T16:04:28.612Z,27.90
2019-04-21T16:06:59.374Z,28.00
2019-04-21T16:09:30.664Z,28.00
2019-04-21T16:12:00.014Z,27.80
2019-04-21T16:14:29.348Z,27.70
2019-04-21T16:16:59.185Z,27.70
2019-04-21T16:19:29.296Z,27.60
2019-04-21T16:22:01.124Z,27.60
2019-04-21T16:24:30.881Z,27.60
2019-04-21T16:27:04.590Z,27.60
2019-04-21T16:29:31.368Z,27.60
2019-04-21T16:32:01.700Z,27.30
2019-04-21T16:34:42.790Z,27.20
2019-04-21T16:37:03.431Z,27.20
2019-04-21T16:39:33.548Z,27.20
2019-04-21T16:42:02.912Z,26.80
2019-04-21T16:44:32.193Z,26.70
2019-04-21T16:47:01.470Z,26.60
2019-04-21T16:49:31.769Z,26.50
2019-04-21T16:52:10.021Z,26.50
2019-04-21T16:54:42.048Z,26.40
2019-04-21T16:57:28.266Z,26.30
2019-04-21T17:00:00.232Z,26.30
2019-04-21T17:02:30.397Z,26.20
2019-04-21T17:05:00.401Z,26.10
2019-04-21T17:07:30.374Z,26.30
2019-04-21T17:09:59.843Z,26.10
2019-04-21T17:12:30.663Z,25.70
2019-04-21T17:15:15.452Z,25.80
2019-04-21T17:17:55.871Z,25.70
2019-04-21T17:20:15.896Z,25.80
2019-04-21T17:22:35.419Z,25.70
2019-04-21T17:25:06.741Z,25.70
2019-04-21T17:27:36.762Z,25.50
2019-04-21T17:30:08.518Z,25.40
2019-04-21T17:32:43.375Z,25.10
2019-04-21T17:35:10.198Z,25.30
2019-04-21T17:37:40.452Z,25.30
2019-04-21T17:40:11.242Z,25.30
2019-04-21T17:42:47.471Z,25.40
2019-04-21T17:45:13.173Z,25.20
2019-04-21T17:47:49.832Z,25.00
2019-04-21T17:50:21.080Z,25.00
2019-04-21T17:53:07.291Z,24.80
2019-04-21T17:55:37.392Z,24.70
2019-04-21T17:58:24.747Z,24.50
2019-04-21T18:03:42.202Z,23.80
2019-04-21T18:05:56.067Z,23.80
2019-04-21T18:08:29.516Z,23.70
2019-04-21T18:10:54.381Z,23.60
2019-04-21T18:13:18.222Z,23.50
2019-04-21T18:15:58.672Z,23.30
2019-04-21T18:18:16.716Z,23.20
2019-04-21T18:21:04.900Z,23.10
2019-04-21T18:23:47.306Z,22.90
2019-04-21T18:26:15.376Z,22.70
2019-04-21T18:28:38.781Z,22.60
2019-04-21T18:31:12.339Z,22.40
2019-04-21T18:33:44.429Z,22.30
2019-04-21T18:36:25.403Z,22.10
2019-04-21T18:39:10.024Z,21.90
2019-04-21T18:41:42.674Z,21.80
2019-04-21T18:44:36.501Z,21.70
2019-04-21T18:47:09.590Z,21.50
2019-04-21T18:49:19.788Z,21.30
2019-04-21T18:52:01.254Z,21.20
2019-04-21T18:54:41.250Z,21.10
2019-04-21T18:57:04.478Z,20.90
2019-04-21T18:59:31.083Z,20.70
2019-04-21T19:02:02.003Z,20.70
2019-04-21T19:04:32.452Z,20.70
2019-04-21T19:07:16.871Z,20.50
2019-04-21T19:12:23.547Z,20.40
2019-04-21T19:14:46.361Z,20.40
2019-04-21T19:17:51.082Z,20.30
2019-04-21T19:19:56.456Z,19.70
2019-04-21T19:22:22.617Z,19.60
2019-04-21T19:25:13.158Z,18.90
2019-04-21T19:27:37.569Z,19.00
2019-04-21T19:30:05.667Z,19.20
2019-04-21T19:32:29.082Z,19.40
2019-04-21T19:34:47.359Z,19.50
2019-04-21T19:37:20.134Z,19.50
2019-04-21T19:40:00.552Z,18.80
2019-04-21T19:42:25.583Z,18.50
2019-04-21T19:45:08.930Z,18.70
2019-04-21T19:47:41.110Z,18.90
2019-04-21T19:50:12.194Z,18.90
2019-04-21T19:52:33.643Z,18.90
2019-04-21T19:54:52.703Z,18.90
2019-04-21T19:57:23.164Z,18.80
2019-04-21T19:59:55.848Z,18.80
2019-04-21T20:02:24.567Z,18.70
2019-04-21T20:05:01.505Z,18.70
2019-04-21T20:07:41.863Z,18.60
2019-04-21T20:10:20.850Z,18.60
2019-04-21T20:12:45.280Z,18.50
2019-04-21T20:15:26.206Z,18.40
2019-04-21T20:17:42.422Z,18.40
2019-04-21T20:20:00.444Z,18.40
2019-04-21T20:22:35.455Z,18.10
2019-04-21T20:25:07.919Z,18.00
2019-04-21T20:27:42.419Z,18.00
2019-04-21T20:30:21.736Z,18.00
2019-04-21T20:33:01.854Z,18.00
2019-04-21T20:35:35.053Z,17.90
2019-04-21T20:37:55.022Z,17.90
2019-04-21T20:40:19.584Z,17.80
2019-04-21T20:43:03.458Z,17.70
2019-04-21T20:45:37.557Z,17.70
2019-04-21T20:47:52.150Z,17.50
2019-04-21T20:50:35.369Z,17.40
2019-04-21T20:53:06.103Z,17.30
2019-04-21T20:55:30.322Z,17.20
2019-04-21T20:58:04.163Z,17.00
2019-04-21T21:00:47.183Z,17.00
2019-04-21T21:03:23.167Z,17.00
2019-04-21T21:05:45.183Z,16.90
2019-04-21T21:08:21.532Z,17.00
2019-04-21T21:10:43.935Z,17.00
2019-04-21T21:13:26.512Z,17.00
2019-04-21T21:16:05.877Z,16.90
2019-04-21T21:18:40.839Z,16.90
2019-04-21T21:20:56.490Z,16.90
2019-04-21T21:23:14.187Z,16.80
2019-04-21T21:25:54.404Z,16.70
2019-04-21T21:28:25.123Z,16.70
2019-04-21T21:30:52.841Z,16.60
2019-04-21T21:33:27.342Z,16.40
2019-04-21T21:36:03.193Z,16.30
2019-04-21T21:38:32.913Z,16.30
2019-04-21T21:40:56.988Z,16.20
2019-04-21T21:43:23.081Z,16.10
2019-04-21T21:45:55.330Z,16.00
2019-04-21T21:48:32.299Z,16.00
2019-04-21T21:51:01.627Z,15.80
2019-04-21T21:53:26.585Z,15.70
2019-04-21T21:55:53.381Z,15.60
2019-04-21T21:58:29.912Z,15.60
2019-04-21T22:00:58.872Z,15.60
2019-04-21T22:03:31.756Z,15.60
2019-04-21T22:06:05.013Z,15.40
2019-04-21T22:08:28.513Z,15.40
2019-04-21T22:10:58.975Z,15.40
2019-04-21T22:13:37.556Z,15.30
2019-04-21T22:16:04.749Z,15.30
2019-04-21T22:18:43.301Z,15.30
2019-04-21T22:21:15.944Z,15.20
2019-04-21T22:23:43.728Z,15.10
2019-04-21T22:26:05.379Z,15.10
2019-04-21T22:28:35.939Z,15.10
2019-04-21T22:31:13.150Z,15.10
2019-04-21T22:33:41.938Z,15.00
2019-04-21T22:36:20.988Z,14.90
2019-04-21T22:38:51.897Z,14.90
2019-04-21T22:41:22.172Z,14.90
2019-04-21T22:43:44.372Z,14.80
2019-04-21T22:46:14.018Z,14.80
2019-04-21T22:48:45.352Z,14.80
2019-04-21T22:51:26.458Z,14.70
2019-04-21T22:53:48.839Z,14.70
2019-04-21T22:56:23.849Z,14.60
2019-04-21T22:58:48.263Z,14.60
2019-04-21T23:01:25.209Z,14.40
2019-04-21T23:03:54.691Z,14.20
2019-04-21T23:06:25.330Z,14.20
2019-04-21T23:08:51.255Z,14.10
2019-04-21T23:11:21.535Z,14.00
2019-04-21T23:14:00.677Z,14.00
2019-04-21T23:16:29.319Z,13.90
2019-04-21T23:19:11.537Z,13.90
2019-04-21T23:21:47.421Z,14.00
2019-04-21T23:24:14.912Z,14.00
2019-04-21T23:26:44.874Z,14.00
2019-04-21T23:29:17.368Z,13.90
2019-04-21T23:31:52.120Z,13.90
2019-04-21T23:34:00.115Z,13.70
2019-04-21T23:36:32.179Z,13.60
2019-04-21T23:39:01.366Z,13.60
2019-04-21T23:41:36.124Z,13.60
2019-04-21T23:44:07.839Z,13.60
2019-04-21T23:46:36.657Z,13.40
2019-04-21T23:49:18.494Z,13.40
2019-04-21T23:51:44.980Z,13.40
2019-04-21T23:54:07.334Z,13.30
2019-04-21T23:56:40.927Z,13.30
2019-04-21T23:59:13.676Z,13.30
